Time;durP1;ratioP1;P1;durP2;ratioP2;P2;SDS_P1;SDS_P2;PMS_P1;PMS_P2;Temp;Humidity;BMP_temperature;BMP_pressure;BME280_temperature;BME280_humidity;BME280_pressure;Samples;Min_cycle;Max_cycle;Signal;HPM_P1;HPM_P2
2023/10/26 00:00:10;;;;;;;14.10;6.70;;;11.90;79.90;;;;;;4862364;29;20049;-87
2023/10/26 00:02:39;;;;;;;15.80;7.68;;;12.00;79.80;;;;;;4851741;29;20074;-87
2023/10/26 00:05:07;;;;;;;13.77;6.30;;;12.00;80.00;;;;;;4877822;29;20073;-88
2023/10/26 00:07:35;;;;;;;11.85;5.35;;;12.00;79.70;;;;;;4846895;29;20050;-87
2023/10/26 00:10:03;;;;;;;13.90;5.50;;;12.00;79.50;;;;;;4862529;29;20050;-87
2023/10/26 00:12:30;;;;;;;9.20;4.27;;;12.10;79.50;;;;;;4872129;29;20503;-87
2023/10/26 00:14:58;;;;;;;9.23;4.70;;;12.20;79.30;;;;;;4881734;29;20071;-87
2023/10/26 00:17:26;;;;;;;9.15;4.82;;;12.20;79.10;;;;;;4874761;29;20049;-87
2023/10/26 00:19:53;;;;;;;9.10;3.58;;;12.20;79.20;;;;;;4870974;29;20125;-88
2023/10/26 00:22:21;;;;;;;7.13;3.60;;;12.30;79.20;;;;;;4869104;29;20055;-87
2023/10/26 00:24:50;;;;;;;7.47;3.27;;;12.30;79.00;;;;;;4899438;29;20060;-87
2023/10/26 00:27:17;;;;;;;8.98;3.50;;;12.30;79.20;;;;;;4868478;29;20084;-87
2023/10/26 00:29:44;;;;;;;7.50;3.65;;;12.20;79.20;;;;;;4899221;29;20487;-88
2023/10/26 00:32:11;;;;;;;7.53;3.63;;;12.20;79.40;;;;;;4883639;29;20525;-87
2023/10/26 00:34:38;;;;;;;6.90;3.35;;;12.20;79.50;;;;;;4899186;29;20048;-87
2023/10/26 00:37:06;;;;;;;6.20;3.20;;;12.30;79.50;;;;;;4899117;29;20051;-88
2023/10/26 00:39:34;;;;;;;6.78;2.90;;;12.40;79.40;;;;;;4868393;29;20052;-88
2023/10/26 00:42:01;;;;;;;7.38;3.17;;;12.40;79.40;;;;;;4898636;29;20041;-87
2023/10/26 00:44:28;;;;;;;4.57;2.03;;;12.40;79.60;;;;;;4883310;29;20041;-87
2023/10/26 00:46:56;;;;;;;6.53;2.42;;;12.50;79.90;;;;;;4891759;29;20131;-88
2023/10/26 00:49:23;;;;;;;6.00;2.20;;;12.60;79.80;;;;;;4863683;29;20393;-88
2023/10/26 00:51:55;;;;;;;6.15;2.10;;;12.70;79.90;;;;;;4898523;29;20048;-87
2023/10/26 00:54:24;;;;;;;4.13;1.98;;;12.70;79.90;;;;;;4898747;29;20068;-88
2023/10/26 00:56:52;;;;;;;5.45;2.00;;;12.90;79.80;;;;;;4887115;29;20104;-87
2023/10/26 00:59:20;;;;;;;4.25;1.85;;;13.00;79.60;;;;;;4867718;29;20049;-87
2023/10/26 01:01:50;;;;;;;4.77;1.90;;;13.00;79.20;;;;;;4898522;29;20388;-87
2023/10/26 01:04:18;;;;;;;4.15;1.88;;;13.10;79.30;;;;;;4898559;29;20503;-87
2023/10/26 01:06:45;;;;;;;5.18;1.80;;;13.10;79.10;;;;;;4890502;29;20562;-87
2023/10/26 01:09:14;;;;;;;4.82;1.90;;;13.20;79.10;;;;;;4898096;29;20458;-87
2023/10/26 01:11:43;;;;;;;6.78;2.50;;;13.20;79.00;;;;;;4898273;29;20051;-87
2023/10/26 01:14:11;;;;;;;5.30;2.27;;;13.10;78.80;;;;;;4898379;29;20044;-87
2023/10/26 01:16:38;;;;;;;3.85;1.75;;;13.20;78.90;;;;;;4879453;29;20050;-87
2023/10/26 01:19:06;;;;;;;4.55;2.15;;;13.20;79.00;;;;;;4861448;29;20049;-87
2023/10/26 01:21:53;;;;;;;4.72;2.00;;;13.20;78.80;;;;;;4860992;29;20135;-87
2023/10/26 01:24:20;;;;;;;4.45;1.98;;;13.20;78.80;;;;;;4873700;29;20097;-87
2023/10/26 01:26:48;;;;;;;4.60;1.97;;;13.20;78.80;;;;;;4860844;29;20144;-87
2023/10/26 01:29:15;;;;;;;6.65;2.40;;;13.10;78.90;;;;;;4861462;29;20136;-86
2023/10/26 01:31:42;;;;;;;5.38;2.63;;;13.10;79.00;;;;;;4863580;29;20045;-86
2023/10/26 01:34:09;;;;;;;6.38;2.40;;;13.10;79.10;;;;;;4876572;29;20069;-86
2023/10/26 01:36:36;;;;;;;4.35;2.38;;;13.10;79.10;;;;;;4876147;29;20040;-86
2023/10/26 01:39:04;;;;;;;5.97;2.60;;;13.00;79.10;;;;;;4861172;29;20061;-87
2023/10/26 01:41:32;;;;;;;7.03;2.78;;;13.00;79.30;;;;;;4846937;29;20512;-87
2023/10/26 01:44:03;;;;;;;6.80;2.90;;;13.00;79.40;;;;;;4827063;29;20053;-87
2023/10/26 01:46:30;;;;;;;6.20;2.47;;;13.00;79.30;;;;;;4860572;29;20102;-86
2023/10/26 01:48:59;;;;;;;6.75;2.55;;;13.00;79.50;;;;;;4860892;29;20496;-86
2023/10/26 01:51:26;;;;;;;5.07;2.47;;;13.00;79.30;;;;;;4860503;29;20418;-86
2023/10/26 01:53:54;;;;;;;10.15;3.00;;;13.00;79.30;;;;;;4843298;29;20076;-86
2023/10/26 01:56:21;;;;;;;8.23;3.78;;;13.10;79.40;;;;;;4860979;29;20400;-87
2023/10/26 01:58:48;;;;;;;5.93;2.70;;;13.00;79.50;;;;;;4863678;29;20045;-86
2023/10/26 02:01:16;;;;;;;5.78;2.92;;;13.00;79.60;;;;;;4875942;29;20132;-87
2023/10/26 02:03:43;;;;;;;5.90;2.70;;;12.90;79.50;;;;;;4860600;29;20402;-87
2023/10/26 02:06:10;;;;;;;5.85;2.85;;;12.90;79.70;;;;;;4858428;29;20084;-86
2023/10/26 02:08:37;;;;;;;8.75;3.17;;;12.90;79.60;;;;;;4860593;29;20129;-86
2023/10/26 02:11:05;;;;;;;6.60;3.22;;;12.80;79.70;;;;;;4860824;29;20185;-87
2023/10/26 02:13:35;;;;;;;7.00;2.90;;;12.80;79.60;;;;;;4857924;29;20508;-87
2023/10/26 02:16:02;;;;;;;6.43;3.20;;;12.80;79.60;;;;;;4876193;29;20057;-87
2023/10/26 02:18:30;;;;;;;7.57;3.35;;;12.80;79.50;;;;;;4869642;29;20041;-87
2023/10/26 02:21:00;;;;;;;7.30;3.20;;;12.80;79.50;;;;;;4852096;29;20527;-88
2023/10/26 02:23:28;;;;;;;5.38;2.65;;;12.70;79.80;;;;;;4837246;29;20050;-88
2023/10/26 02:25:55;;;;;;;7.50;3.40;;;12.60;79.90;;;;;;4845552;29;20053;-87
2023/10/26 02:28:23;;;;;;;5.30;2.63;;;12.50;80.00;;;;;;4845339;29;20056;-87
2023/10/26 02:30:50;;;;;;;5.82;2.50;;;12.50;80.30;;;;;;4847350;29;20081;-87
2023/10/26 02:33:18;;;;;;;5.68;2.88;;;12.50;80.40;;;;;;4843359;29;20121;-87
2023/10/26 02:35:45;;;;;;;5.47;2.67;;;12.50;80.40;;;;;;4845310;29;20048;-87
2023/10/26 02:38:13;;;;;;;5.47;2.75;;;12.50;80.40;;;;;;4860382;29;20132;-87
2023/10/26 02:40:40;;;;;;;6.40;2.83;;;12.50;80.30;;;;;;4845004;29;20049;-87
2023/10/26 02:43:07;;;;;;;5.38;2.63;;;12.50;80.30;;;;;;4860491;29;20519;-87
2023/10/26 02:45:34;;;;;;;6.55;2.70;;;12.50;80.00;;;;;;4845295;29;20117;-87
2023/10/26 02:48:04;;;;;;;4.70;2.20;;;12.60;80.10;;;;;;4875733;29;20078;-87
2023/10/26 02:50:35;;;;;;;5.70;2.80;;;12.50;80.10;;;;;;4844890;29;20500;-88
2023/10/26 02:53:02;;;;;;;6.67;3.00;;;12.50;80.10;;;;;;4860514;29;20071;-88
2023/10/26 02:55:31;;;;;;;5.57;2.60;;;12.60;80.10;;;;;;4861516;29;20140;-84
2023/10/26 02:57:58;;;;;;;6.50;2.78;;;12.60;80.00;;;;;;4862958;29;20389;-84
2023/10/26 03:00:25;;;;;;;5.35;2.50;;;12.60;79.90;;;;;;4852211;29;20068;-84
2023/10/26 03:02:55;;;;;;;5.97;2.55;;;12.60;80.10;;;;;;4876061;29;20037;-85
2023/10/26 03:05:22;;;;;;;5.43;2.47;;;12.60;80.30;;;;;;4847967;29;20049;-85
2023/10/26 03:07:52;;;;;;;5.82;2.47;;;12.50;80.50;;;;;;4855443;29;20045;-85
2023/10/26 03:10:20;;;;;;;7.47;2.78;;;12.70;80.60;;;;;;4844258;29;20416;-84
2023/10/26 03:12:48;;;;;;;7.63;2.63;;;12.70;80.60;;;;;;4862743;29;20128;-84
2023/10/26 03:15:16;;;;;;;5.80;2.50;;;12.80;80.50;;;;;;4880069;29;20049;-85
2023/10/26 03:17:44;;;;;;;5.50;2.20;;;12.90;80.50;;;;;;4876043;29;20052;-84
2023/10/26 03:20:11;;;;;;;5.72;1.90;;;13.00;80.30;;;;;;4875851;29;20056;-84
2023/10/26 03:22:38;;;;;;;5.90;2.20;;;13.00;80.10;;;;;;4878457;29;20511;-85
2023/10/26 03:25:06;;;;;;;4.75;2.20;;;13.10;79.90;;;;;;4851772;29;20045;-84
2023/10/26 03:27:33;;;;;;;6.60;2.45;;;13.10;79.80;;;;;;4869605;29;20056;-85
2023/10/26 03:30:00;;;;;;;7.47;2.40;;;13.20;79.60;;;;;;4855047;29;20049;-84
2023/10/26 03:32:27;;;;;;;6.82;2.80;;;13.30;79.50;;;;;;4892709;29;20045;-85
2023/10/26 03:34:57;;;;;;;6.40;2.55;;;13.40;79.30;;;;;;4875741;29;20053;-84
2023/10/26 03:37:25;;;;;;;5.38;2.50;;;13.50;79.10;;;;;;4872299;29;20045;-84
2023/10/26 03:39:52;;;;;;;8.43;3.00;;;13.50;78.90;;;;;;4877656;29;20096;-85
2023/10/26 03:42:19;;;;;;;6.37;2.30;;;13.60;78.70;;;;;;4879389;29;20508;-86
2023/10/26 03:44:46;;;;;;;8.18;2.72;;;13.60;78.40;;;;;;4886599;29;20045;-86
2023/10/26 03:47:14;;;;;;;6.80;2.55;;;13.60;78.50;;;;;;4863947;29;20048;-85
2023/10/26 03:49:44;;;;;;;8.10;2.85;;;13.70;78.70;;;;;;4873698;29;20045;-85
2023/10/26 03:52:11;;;;;;;10.18;3.22;;;13.70;78.80;;;;;;4876025;29;20057;-86
2023/10/26 03:54:38;;;;;;;9.57;3.20;;;13.70;79.20;;;;;;4860937;29;20045;-86
2023/10/26 03:57:06;;;;;;;9.77;3.40;;;13.70;79.50;;;;;;4868180;29;20512;-88
2023/10/26 03:59:33;;;;;;;10.48;3.72;;;13.60;79.80;;;;;;4870363;29;20131;-89
2023/10/26 04:02:00;;;;;;;12.35;3.85;;;13.60;79.90;;;;;;4868874;29;20057;-85
2023/10/26 04:04:27;;;;;;;8.80;3.58;;;13.60;80.30;;;;;;4870133;29;20049;-85
2023/10/26 04:06:54;;;;;;;6.57;2.73;;;13.50;80.80;;;;;;4871869;29;20057;-85
2023/10/26 04:09:22;;;;;;;6.97;3.67;;;13.40;80.90;;;;;;4874222;29;20404;-85
2023/10/26 04:11:49;;;;;;;8.35;3.60;;;13.30;81.20;;;;;;4874690;29;20523;-86
2023/10/26 04:14:16;;;;;;;7.07;3.00;;;13.10;81.90;;;;;;4872652;29;20048;-84
2023/10/26 04:16:47;;;;;;;8.98;3.88;;;13.00;82.50;;;;;;4887867;29;20586;-85
2023/10/26 04:19:14;;;;;;;7.93;3.80;;;12.80;83.00;;;;;;4886151;29;20128;-85
2023/10/26 04:21:42;;;;;;;7.03;3.40;;;12.80;83.20;;;;;;4869094;29;20052;-85
2023/10/26 04:24:09;;;;;;;6.90;4.10;;;12.80;83.40;;;;;;4882936;29;20144;-85
2023/10/26 04:26:36;;;;;;;7.50;3.65;;;12.80;83.50;;;;;;4872958;29;20056;-85
2023/10/26 04:29:05;;;;;;;7.75;3.67;;;12.90;83.30;;;;;;4889514;29;20144;-85
2023/10/26 04:31:34;;;;;;;7.27;2.80;;;13.00;83.20;;;;;;4884186;29;20045;-85
2023/10/26 04:34:01;;;;;;;5.60;2.17;;;13.00;83.20;;;;;;4856982;29;20046;-84
2023/10/26 04:36:29;;;;;;;5.40;1.98;;;12.90;82.90;;;;;;4866697;29;20384;-86
2023/10/26 04:38:56;;;;;;;9.98;1.40;;;12.90;82.80;;;;;;4868884;29;20045;-85
2023/10/26 04:41:23;;;;;;;10.85;1.45;;;12.80;82.20;;;;;;4869084;29;20057;-85
2023/10/26 04:43:50;;;;;;;10.93;1.30;;;12.80;82.90;;;;;;4858869;29;20057;-85
2023/10/26 04:46:17;;;;;;;5.93;1.70;;;12.90;82.60;;;;;;4880357;29;20060;-85
2023/10/26 04:48:44;;;;;;;7.20;2.47;;;13.00;82.30;;;;;;4871314;29;20041;-85
2023/10/26 04:51:11;;;;;;;9.48;2.70;;;12.90;82.20;;;;;;4870246;29;20053;-85
2023/10/26 04:53:38;;;;;;;5.07;1.52;;;12.90;82.40;;;;;;4886615;29;20140;-85
2023/10/26 04:56:06;;;;;;;2.17;0.87;;;12.90;82.40;;;;;;4872778;29;20053;-85
2023/10/26 04:58:33;;;;;;;2.20;0.90;;;12.70;82.30;;;;;;4874066;29;20101;-85
2023/10/26 05:01:00;;;;;;;2.85;0.95;;;12.60;82.50;;;;;;4870313;29;20132;-85
2023/10/26 05:03:27;;;;;;;2.13;0.85;;;12.50;82.80;;;;;;4864530;29;20041;-84
2023/10/26 05:05:54;;;;;;;2.58;0.80;;;12.50;82.90;;;;;;4886107;29;20109;-86
2023/10/26 05:08:21;;;;;;;3.10;0.90;;;12.50;82.60;;;;;;4866533;29;20120;-85
2023/10/26 05:10:48;;;;;;;3.08;0.88;;;12.50;82.60;;;;;;4882217;29;20140;-84
2023/10/26 05:13:15;;;;;;;4.22;1.38;;;12.50;82.50;;;;;;4868468;29;20042;-84
2023/10/26 05:15:44;;;;;;;5.18;1.52;;;12.50;82.60;;;;;;4872246;29;20148;-85
2023/10/26 05:18:11;;;;;;;6.18;1.63;;;12.60;82.60;;;;;;4844875;29;20045;-85
2023/10/26 05:20:38;;;;;;;5.57;2.00;;;12.60;82.80;;;;;;4875551;29;20060;-84
2023/10/26 05:23:06;;;;;;;6.15;2.55;;;12.60;83.00;;;;;;4875773;29;20045;-85
2023/10/26 05:25:36;;;;;;;7.65;2.60;;;12.60;83.00;;;;;;4844768;29;20117;-85
2023/10/26 05:28:03;;;;;;;10.07;3.17;;;12.60;82.90;;;;;;4858924;29;20049;-85
2023/10/26 05:30:30;;;;;;;9.32;3.70;;;12.70;82.90;;;;;;4863802;29;20045;-85
2023/10/26 05:32:57;;;;;;;13.87;4.17;;;12.80;82.70;;;;;;4875659;29;20054;-85
2023/10/26 05:35:24;;;;;;;13.27;5.28;;;12.80;81.70;;;;;;4843637;29;20037;-85
2023/10/26 05:37:52;;;;;;;12.13;6.20;;;12.80;82.60;;;;;;4844763;29;20064;-85
2023/10/26 05:40:19;;;;;;;22.48;4.30;;;12.80;82.50;;;;;;4845549;29;20045;-85
2023/10/26 05:42:46;;;;;;;9.38;3.80;;;12.80;81.10;;;;;;4844823;29;20087;-85
2023/10/26 05:45:13;;;;;;;7.23;2.83;;;13.00;80.80;;;;;;4868646;29;20050;-84
2023/10/26 05:47:40;;;;;;;7.10;2.03;;;13.00;80.30;;;;;;4844529;29;20137;-85
2023/10/26 05:50:08;;;;;;;10.40;1.85;;;13.00;80.00;;;;;;4870440;29;20045;-85
2023/10/26 05:52:35;;;;;;;8.35;2.30;;;13.00;78.40;;;;;;4844433;29;20041;-85
2023/10/26 05:55:02;;;;;;;7.03;1.50;;;12.90;77.40;;;;;;4859890;29;20125;-84
2023/10/26 05:57:29;;;;;;;6.63;1.63;;;12.90;76.50;;;;;;4844662;29;20385;-85
2023/10/26 05:59:56;;;;;;;7.65;1.80;;;12.90;75.80;;;;;;4859857;29;20119;-85
2023/10/26 06:02:23;;;;;;;5.35;1.25;;;13.00;75.90;;;;;;4860050;29;20060;-85
2023/10/26 06:04:51;;;;;;;3.78;1.00;;;13.00;74.70;;;;;;4844530;29;20056;-85
2023/10/26 06:07:18;;;;;;;4.03;1.10;;;13.00;72.50;;;;;;4844710;29;20053;-85
2023/10/26 06:09:45;;;;;;;3.77;1.10;;;13.10;72.00;;;;;;4867727;29;20049;-84
2023/10/26 06:12:12;;;;;;;2.92;1.20;;;13.10;71.40;;;;;;4844780;29;20045;-84
2023/10/26 06:14:39;;;;;;;2.92;0.90;;;13.10;70.70;;;;;;4859873;29;20129;-86
2023/10/26 06:17:06;;;;;;;1.85;0.70;;;13.20;70.80;;;;;;4880432;29;20523;-85
2023/10/26 06:19:34;;;;;;;3.35;1.05;;;13.20;70.10;;;;;;4897023;29;20048;-85
2023/10/26 06:22:01;;;;;;;1.37;0.70;;;13.20;69.50;;;;;;4881481;29;20061;-85
2023/10/26 06:24:28;;;;;;;2.17;0.70;;;13.30;69.90;;;;;;4896730;29;20056;-85
2023/10/26 06:26:55;;;;;;;2.13;0.85;;;13.30;69.90;;;;;;4897163;29;20052;-85
2023/10/26 06:29:22;;;;;;;1.60;0.60;;;13.40;69.60;;;;;;4880988;29;20056;-85
2023/10/26 06:31:49;;;;;;;1.40;0.63;;;13.30;69.70;;;;;;4898273;29;20055;-84
2023/10/26 06:34:16;;;;;;;2.23;0.70;;;13.40;70.10;;;;;;4885253;29;20053;-84
2023/10/26 06:36:43;;;;;;;1.48;0.60;;;13.50;71.10;;;;;;4900476;29;20502;-84
2023/10/26 06:39:10;;;;;;;1.75;0.80;;;13.40;70.10;;;;;;4884938;29;20041;-85
2023/10/26 06:41:37;;;;;;;4.30;0.70;;;13.40;70.30;;;;;;4900556;29;20045;-85
2023/10/26 06:44:04;;;;;;;2.88;1.02;;;13.50;71.20;;;;;;4897948;29;20089;-85
2023/10/26 06:46:31;;;;;;;2.90;0.77;;;13.40;71.10;;;;;;4877103;29;20048;-85
2023/10/26 06:48:58;;;;;;;4.43;0.95;;;13.40;71.10;;;;;;4884922;29;20967;-85
2023/10/26 06:51:32;;;;;;;4.28;0.90;;;13.40;73.20;;;;;;4884841;29;20473;-85
2023/10/26 06:53:59;;;;;;;2.08;0.80;;;13.30;73.20;;;;;;4896792;29;20135;-85
2023/10/26 06:56:26;;;;;;;5.10;1.10;;;13.30;73.70;;;;;;4869305;29;20044;-85
2023/10/26 06:58:53;;;;;;;8.63;2.47;;;13.20;74.50;;;;;;4887968;29;20051;-85
2023/10/26 07:01:20;;;;;;;6.90;1.40;;;13.20;74.30;;;;;;4900266;29;20127;-85
2023/10/26 07:03:48;;;;;;;5.65;1.50;;;13.30;74.50;;;;;;4869124;29;20049;-86
2023/10/26 07:06:16;;;;;;;6.25;1.63;;;13.30;74.70;;;;;;4900436;29;20051;-85
2023/10/26 07:08:43;;;;;;;3.40;1.15;;;13.40;75.10;;;;;;4900243;29;20068;-85
2023/10/26 07:11:11;;;;;;;2.50;1.00;;;13.40;75.00;;;;;;4900219;29;20051;-85
2023/10/26 07:13:38;;;;;;;2.60;0.77;;;13.30;74.30;;;;;;4894726;29;20131;-85
2023/10/26 07:16:05;;;;;;;2.17;0.90;;;13.30;73.50;;;;;;4900021;29;20075;-85
2023/10/26 07:18:33;;;;;;;3.90;1.23;;;13.40;73.70;;;;;;4884406;29;20044;-85
2023/10/26 07:21:05;;;;;;;2.22;0.73;;;13.40;73.50;;;;;;4900074;29;20076;-84
2023/10/26 07:23:33;;;;;;;2.73;0.80;;;13.50;74.00;;;;;;4882013;29;20041;-85
2023/10/26 07:26:00;;;;;;;6.40;2.85;;;13.50;71.70;;;;;;4883960;29;20040;-84
2023/10/26 07:28:28;;;;;;;4.18;1.45;;;13.50;71.50;;;;;;4898189;29;20053;-85
2023/10/26 07:30:55;;;;;;;5.35;1.77;;;13.60;70.40;;;;;;4899902;29;20083;-85
2023/10/26 07:33:22;;;;;;;4.00;1.30;;;13.60;71.70;;;;;;4899314;29;20052;-85
2023/10/26 07:35:55;;;;;;;3.50;1.03;;;13.70;71.60;;;;;;4896038;29;20138;-85
2023/10/26 07:38:25;;;;;;;7.53;2.00;;;13.80;70.30;;;;;;4870629;29;20101;-85
2023/10/26 07:41:04;;;;;;;6.68;3.33;;;13.80;70.60;;;;;;4883156;29;20097;-85
2023/10/26 07:43:33;;;;;;;5.57;1.40;;;13.80;70.10;;;;;;4899008;29;20400;-85
2023/10/26 07:46:00;;;;;;;6.10;2.90;;;13.80;70.00;;;;;;4868509;29;20137;-85
2023/10/26 07:48:28;;;;;;;4.57;1.80;;;13.90;70.20;;;;;;4899280;29;20471;-84
2023/10/26 07:50:56;;;;;;;5.70;1.90;;;14.00;70.60;;;;;;4897158;29;20048;-84
2023/10/26 07:53:23;;;;;;;28.10;13.55;;;14.10;69.10;;;;;;4883577;29;20055;-84
2023/10/26 07:55:50;;;;;;;9.32;4.00;;;14.10;69.30;;;;;;4900209;29;20048;-84
2023/10/26 07:58:18;;;;;;;6.45;2.15;;;14.10;69.50;;;;;;4899249;29;20044;-84
2023/10/26 08:00:45;;;;;;;7.63;3.43;;;14.10;69.50;;;;;;4899236;29;20044;-85
2023/10/26 08:03:12;;;;;;;5.30;2.20;;;14.10;68.70;;;;;;4883757;29;20051;-85
2023/10/26 08:05:39;;;;;;;5.07;2.15;;;14.10;68.90;;;;;;4898987;29;20075;-83
2023/10/26 08:08:06;;;;;;;5.55;1.27;;;14.10;69.10;;;;;;4883517;29;20058;-84
2023/10/26 08:10:36;;;;;;;4.68;1.20;;;14.20;69.30;;;;;;4898705;29;20444;-85
2023/10/26 08:13:04;;;;;;;2.07;0.90;;;14.20;69.00;;;;;;4883234;29;20557;-85
2023/10/26 08:15:31;;;;;;;2.45;0.95;;;14.30;69.00;;;;;;4897512;29;20052;-85
2023/10/26 08:18:18;;;;;;;2.72;1.30;;;14.20;69.00;;;;;;4890490;29;20486;-84
2023/10/26 08:20:51;;;;;;;2.15;0.73;;;14.30;69.50;;;;;;4890960;29;20140;-85
2023/10/26 08:23:19;;;;;;;2.38;0.90;;;14.30;69.50;;;;;;4889898;29;20044;-84
2023/10/26 08:25:47;;;;;;;1.77;0.80;;;14.30;69.50;;;;;;4867828;29;20073;-84
2023/10/26 08:28:18;;;;;;;2.60;1.00;;;14.30;69.10;;;;;;4888912;29;20522;-84
2023/10/26 08:30:45;;;;;;;2.90;1.27;;;14.30;69.20;;;;;;4898668;29;20048;-84
2023/10/26 08:33:12;;;;;;;2.58;1.27;;;14.20;68.70;;;;;;4895936;29;20440;-85
2023/10/26 08:35:41;;;;;;;3.17;1.55;;;14.30;69.20;;;;;;4898588;29;20517;-85
2023/10/26 08:38:08;;;;;;;4.67;2.10;;;14.30;68.60;;;;;;4880164;29;20041;-83
2023/10/26 08:40:36;;;;;;;3.25;1.50;;;14.30;69.10;;;;;;4883087;29;20075;-85
2023/10/26 08:43:05;;;;;;;9.65;2.47;;;14.40;68.80;;;;;;4898373;29;20187;-84
2023/10/26 08:45:35;;;;;;;5.63;1.58;;;14.50;68.40;;;;;;4898375;29;20139;-84
2023/10/26 08:48:03;;;;;;;4.15;1.20;;;14.40;68.70;;;;;;4867444;29;20133;-85
2023/10/26 08:50:31;;;;;;;5.60;1.67;;;14.40;68.20;;;;;;4866436;29;20052;-85
2023/10/26 08:52:59;;;;;;;4.00;1.30;;;14.50;68.30;;;;;;4882557;29;20049;-84
2023/10/26 08:55:26;;;;;;;2.88;1.15;;;14.50;67.70;;;;;;4898047;29;20041;-85
2023/10/26 08:57:54;;;;;;;4.40;1.17;;;14.50;68.20;;;;;;4898104;29;20055;-84
2023/10/26 09:00:22;;;;;;;3.33;1.00;;;14.40;68.40;;;;;;4882389;29;20044;-85
2023/10/26 09:02:49;;;;;;;4.00;1.00;;;14.40;68.00;;;;;;4896493;29;20056;-85
2023/10/26 09:05:17;;;;;;;4.20;1.00;;;14.40;68.10;;;;;;4886924;29;20068;-85
2023/10/26 09:07:44;;;;;;;6.38;1.73;;;14.40;68.30;;;;;;4881801;29;20048;-85
2023/10/26 09:10:12;;;;;;;9.90;2.20;;;14.40;67.70;;;;;;4894165;29;20481;-84
2023/10/26 09:12:39;;;;;;;4.88;1.30;;;14.40;68.30;;;;;;4879540;29;20403;-85
2023/10/26 09:15:06;;;;;;;6.43;2.73;;;14.40;67.90;;;;;;4882164;29;20432;-85
2023/10/26 09:17:34;;;;;;;4.35;1.50;;;14.50;68.70;;;;;;4882505;29;20499;-85
2023/10/26 09:20:20;;;;;;;6.38;1.98;;;14.50;68.20;;;;;;4897487;29;20048;-84
2023/10/26 09:22:48;;;;;;;6.75;2.05;;;14.50;67.90;;;;;;4884782;29;20052;-85
2023/10/26 09:25:16;;;;;;;6.60;1.67;;;14.50;67.80;;;;;;4897829;29;20051;-84
2023/10/26 09:27:45;;;;;;;7.17;2.40;;;14.60;67.70;;;;;;4863480;29;20048;-85
2023/10/26 09:30:29;;;;;;;7.32;2.88;;;14.60;67.70;;;;;;4880472;29;20045;-84
2023/10/26 09:32:57;;;;;;;7.22;1.40;;;14.80;67.50;;;;;;4878462;29;20049;-84
2023/10/26 09:35:29;;;;;;;6.20;2.40;;;14.70;67.10;;;;;;4866493;29;20049;-84
2023/10/26 09:37:57;;;;;;;9.40;2.13;;;14.60;66.20;;;;;;4892046;29;20072;-85
2023/10/26 09:40:26;;;;;;;13.63;5.20;;;14.60;67.30;;;;;;4866704;29;20095;-84
2023/10/26 09:42:56;;;;;;;3.67;1.58;;;14.60;67.10;;;;;;4882439;29;20072;-85
2023/10/26 09:45:23;;;;;;;12.88;2.92;;;14.70;66.60;;;;;;4895943;29;20052;-85
2023/10/26 09:47:50;;;;;;;12.07;1.85;;;14.80;66.60;;;;;;4897339;29;20055;-85
2023/10/26 09:50:17;;;;;;;4.38;1.20;;;14.80;67.50;;;;;;4882166;29;20096;-85
2023/10/26 09:52:45;;;;;;;5.73;1.00;;;14.90;66.10;;;;;;4895464;29;20055;-85
2023/10/26 09:55:13;;;;;;;4.28;1.10;;;14.90;65.80;;;;;;4871314;29;20064;-85
2023/10/26 09:57:57;;;;;;;35.97;23.42;;;15.00;66.20;;;;;;4877943;29;20040;-84
2023/10/26 10:00:33;;;;;;;27.17;17.67;;;15.20;66.00;;;;;;4865145;29;20056;-85
2023/10/26 10:03:16;;;;;;;11.55;5.53;;;15.20;64.10;;;;;;4880882;29;20072;-85
2023/10/26 10:05:46;;;;;;;2.43;1.07;;;15.30;63.80;;;;;;4899149;29;20044;-85
2023/10/26 10:08:33;;;;;;;3.83;1.35;;;15.30;63.90;;;;;;4885879;29;20388;-85
2023/10/26 10:11:17;;;;;;;4.63;2.47;;;15.30;63.80;;;;;;4900752;29;20477;-85
2023/10/26 10:13:45;;;;;;;5.70;3.28;;;15.30;63.40;;;;;;4885573;29;20143;-85
2023/10/26 10:16:33;;;;;;;6.53;2.38;;;15.30;63.70;;;;;;4900612;29;20048;-85
2023/10/26 10:19:18;;;;;;;3.17;1.20;;;15.30;63.30;;;;;;4885357;29;20491;-84
2023/10/26 10:21:47;;;;;;;3.90;1.70;;;15.30;63.30;;;;;;4898493;29;20051;-85
2023/10/26 10:24:39;;;;;;;7.25;3.00;;;15.20;62.40;;;;;;4885034;29;20143;-85
2023/10/26 10:27:10;;;;;;;2.80;0.95;;;15.30;63.10;;;;;;4897586;29;20045;-85
2023/10/26 10:29:42;;;;;;;3.15;1.38;;;15.20;64.40;;;;;;4876056;29;20135;-84
2023/10/26 10:32:32;;;;;;;6.60;1.87;;;15.20;63.40;;;;;;4892114;29;20059;-85
2023/10/26 10:35:06;;;;;;;4.80;2.40;;;15.30;63.60;;;;;;4878224;29;20445;-85
2023/10/26 10:37:33;;;;;;;3.03;1.20;;;15.30;63.20;;;;;;4875141;29;20049;-85
2023/10/26 10:40:14;;;;;;;3.80;1.95;;;15.50;63.90;;;;;;4883897;29;20044;-85
2023/10/26 10:42:51;;;;;;;5.20;2.45;;;15.60;62.30;;;;;;4893497;29;20116;-85
2023/10/26 10:45:19;;;;;;;3.50;1.07;;;15.60;60.90;;;;;;4900710;29;20056;-84
2023/10/26 10:47:47;;;;;;;3.58;1.23;;;15.70;61.40;;;;;;4887150;29;20052;-84
2023/10/26 10:50:22;;;;;;;4.65;1.27;;;15.80;62.60;;;;;;4869617;29;20056;-85
2023/10/26 10:52:53;;;;;;;4.45;1.75;;;15.80;62.50;;;;;;4884750;29;20044;-85
2023/10/26 10:55:24;;;;;;;8.05;5.20;;;15.80;61.80;;;;;;4866580;29;20049;-84
2023/10/26 10:57:59;;;;;;;4.37;1.23;;;15.80;62.20;;;;;;4900391;29;20403;-85
2023/10/26 11:00:46;;;;;;;3.78;1.15;;;15.70;61.90;;;;;;4869252;29;20055;-85
2023/10/26 11:03:22;;;;;;;5.22;1.30;;;15.60;61.80;;;;;;4884583;29;20052;-84
2023/10/26 11:05:50;;;;;;;1.30;0.60;;;15.50;62.40;;;;;;4883717;29;20056;-85
2023/10/26 11:08:17;;;;;;;2.85;0.80;;;15.40;62.70;;;;;;4887353;29;20055;-85
2023/10/26 11:10:50;;;;;;;3.00;0.83;;;15.50;62.80;;;;;;4884524;29;20075;-85
2023/10/26 11:13:22;;;;;;;3.47;1.08;;;15.50;62.60;;;;;;4899207;29;20048;-85
2023/10/26 11:15:49;;;;;;;4.13;1.17;;;15.50;62.80;;;;;;4884133;29;20557;-85
2023/10/26 11:18:16;;;;;;;2.65;0.88;;;15.50;63.30;;;;;;4874899;29;20052;-85
2023/10/26 11:20:45;;;;;;;4.03;1.08;;;15.60;63.10;;;;;;4899957;29;20048;-85
2023/10/26 11:23:16;;;;;;;3.20;1.20;;;15.50;63.00;;;;;;4886065;29;20059;-84
2023/10/26 11:25:46;;;;;;;2.40;0.90;;;15.50;63.00;;;;;;4884126;29;20456;-84
2023/10/26 11:28:13;;;;;;;4.13;1.13;;;15.50;63.00;;;;;;4884852;29;20448;-85
2023/10/26 11:30:51;;;;;;;4.00;0.95;;;15.60;62.30;;;;;;4884092;29;20044;-84
2023/10/26 11:33:33;;;;;;;1.85;1.05;;;15.70;62.90;;;;;;4883771;29;20072;-85
2023/10/26 11:36:01;;;;;;;5.17;1.07;;;15.70;62.90;;;;;;4868163;29;20052;-85
2023/10/26 11:38:28;;;;;;;6.65;1.00;;;15.80;63.10;;;;;;4883939;29;20084;-85
2023/10/26 11:40:55;;;;;;;6.65;1.10;;;16.00;63.50;;;;;;4894678;29;20100;-85
2023/10/26 11:43:33;;;;;;;3.70;1.20;;;16.00;62.30;;;;;;4869214;29;20590;-85
2023/10/26 11:46:03;;;;;;;4.07;1.85;;;16.00;62.70;;;;;;4899163;29;20041;-85
2023/10/26 11:48:32;;;;;;;2.20;0.93;;;15.90;62.00;;;;;;4880249;29;20044;-84
2023/10/26 11:50:59;;;;;;;2.45;0.98;;;15.80;62.20;;;;;;4889825;29;20049;-85
2023/10/26 11:53:26;;;;;;;2.53;1.10;;;15.60;62.40;;;;;;4899298;29;20040;-85
2023/10/26 11:55:53;;;;;;;3.00;1.00;;;15.60;62.80;;;;;;4883828;29;20137;-84
2023/10/26 11:58:21;;;;;;;2.72;1.05;;;15.70;63.30;;;;;;4896563;29;20041;-85
2023/10/26 12:00:48;;;;;;;2.60;1.07;;;15.80;63.20;;;;;;4894951;29;20049;-85
2023/10/26 12:03:15;;;;;;;2.50;0.90;;;15.90;62.80;;;;;;4876609;29;20044;-85
2023/10/26 12:05:42;;;;;;;5.15;1.33;;;15.90;62.90;;;;;;4883836;29;20055;-85
2023/10/26 12:08:09;;;;;;;3.97;1.30;;;16.00;62.50;;;;;;4899165;29;20048;-85
2023/10/26 12:10:39;;;;;;;4.78;1.15;;;16.00;62.10;;;;;;4883619;29;20045;-85
2023/10/26 12:13:06;;;;;;;3.67;0.90;;;16.20;62.50;;;;;;4899043;29;20055;-85
2023/10/26 12:15:33;;;;;;;3.53;1.00;;;16.10;62.40;;;;;;4895905;29;20051;-85
2023/10/26 12:18:00;;;;;;;4.32;1.13;;;16.00;61.50;;;;;;4880885;29;20100;-85
2023/10/26 12:20:28;;;;;;;2.85;1.02;;;15.90;62.40;;;;;;4883270;29;20479;-84
2023/10/26 12:22:55;;;;;;;5.22;1.02;;;15.80;62.50;;;;;;4897196;29;20087;-85
2023/10/26 12:25:22;;;;;;;3.27;0.90;;;15.70;62.30;;;;;;4897085;29;20080;-85
2023/10/26 12:27:49;;;;;;;2.72;0.98;;;15.60;62.90;;;;;;4884411;29;20044;-85
2023/10/26 12:30:36;;;;;;;4.13;1.20;;;15.60;62.40;;;;;;4883054;29;20086;-84
2023/10/26 12:33:03;;;;;;;3.22;0.98;;;15.50;61.90;;;;;;4883143;29;20040;-85
2023/10/26 12:35:31;;;;;;;2.88;0.90;;;15.50;62.80;;;;;;4895977;29;20096;-85
2023/10/26 12:37:57;;;;;;;4.20;1.03;;;15.50;63.20;;;;;;4896255;29;20056;-85
2023/10/26 12:40:25;;;;;;;5.53;1.30;;;15.50;63.30;;;;;;4898009;29;20487;-85
2023/10/26 12:42:52;;;;;;;3.13;1.00;;;15.60;63.60;;;;;;4894294;29;20052;-85
2023/10/26 12:45:20;;;;;;;3.40;0.93;;;15.70;63.80;;;;;;4894340;29;20127;-85
2023/10/26 12:47:48;;;;;;;4.07;1.30;;;15.80;63.80;;;;;;4894842;29;20398;-85
2023/10/26 12:50:15;;;;;;;3.50;1.00;;;15.80;63.50;;;;;;4898222;29;20044;-84
2023/10/26 12:52:42;;;;;;;7.85;1.70;;;15.80;63.40;;;;;;4898186;29;20040;-85